CFG8ZY EDDF-LEPA
Flight info
| Callsign | CFG8ZY |
|---|---|
| Flight time | 1h 55m |
| Altitude | 33000 |
| Route | ANEKI2L/18 ANEKI Y163 HERBI Y164 MOPAN DCT LUTIX/N0448F350 DCT BENOT DCT NEMOS DCT GEVEA DCT INCUS DCT BALSI DCT RETNO DCT TUPOX DCT MTG DCT DIVKO DCT VATIR DCT PIVUS N852 VERSO L129 LUNIK |
| Aircraft | A21N/M-SDE2E3FGHIRWXY/LB1 |
Departure
| Time | 2026-05-04 12:10 |
|---|---|
| Airport | Frankfurt Main Airport (EDDF) |
Arrival
| Time | 2026-05-04 14:05 |
|---|---|
| Airport | Palma de Mallorca Airport (LEPA) |
| Time | Latitude | Longitude | Altitude | Speed | Heading |
|---|---|---|---|---|---|
| 2026-05-04 11:50 | 50.04119 | 8.55822 | 360 ft | 0 kts | 160° |
| 2026-05-04 12:02 | 50.04068 | 8.55852 | 358 ft | 8 kts | 160° |
| 2026-05-04 12:03 | 50.04017 | 8.55816 | 357 ft | 11 kts | 247° |
| 2026-05-04 12:03 | 50.03985 | 8.55685 | 354 ft | 15 kts | 249° |
| 2026-05-04 12:03 | 50.03946 | 8.55517 | 358 ft | 18 kts | 249° |
| 2026-05-04 12:03 | 50.03896 | 8.55312 | 356 ft | 22 kts | 250° |
| 2026-05-04 12:04 | 50.03839 | 8.55072 | 355 ft | 25 kts | 250° |
| 2026-05-04 12:04 | 50.03774 | 8.54799 | 357 ft | 28 kts | 250° |
| 2026-05-04 12:04 | 50.03702 | 8.54499 | 355 ft | 31 kts | 247° |
| 2026-05-04 12:04 | 50.03634 | 8.54210 | 350 ft | 30 kts | 251° |
| 2026-05-04 12:05 | 50.03559 | 8.53902 | 348 ft | 29 kts | 250° |
| 2026-05-04 12:05 | 50.03486 | 8.53592 | 356 ft | 31 kts | 248° |
| 2026-05-04 12:05 | 50.03411 | 8.53283 | 346 ft | 32 kts | 249° |
| 2026-05-04 12:05 | 50.03332 | 8.52950 | 336 ft | 34 kts | 249° |
| 2026-05-04 12:06 | 50.03266 | 8.52662 | 340 ft | 18 kts | 268° |
| 2026-05-04 12:06 | 50.03225 | 8.52595 | 341 ft | 10 kts | 178° |
| 2026-05-04 12:06 | 50.03208 | 8.52595 | 341 ft | 0 kts | 180° |
| 2026-05-04 12:09 | 50.03045 | 8.52596 | 341 ft | 57 kts | 180° |
| 2026-05-04 12:09 | 50.02414 | 8.52602 | 339 ft | 121 kts | 180° |
| 2026-05-04 12:09 | 50.01395 | 8.52609 | 339 ft | 171 kts | 180° |
| 2026-05-04 12:10 | 50.00144 | 8.52676 | 846 ft | 185 kts | 178° |
| 2026-05-04 12:10 | 49.98894 | 8.52728 | 1746 ft | 178 kts | 181° |
| 2026-05-04 12:10 | 49.97610 | 8.52739 | 2321 ft | 190 kts | 181° |
| 2026-05-04 12:10 | 49.96257 | 8.52831 | 2956 ft | 199 kts | 180° |
| 2026-05-04 12:11 | 49.94848 | 8.52932 | 3581 ft | 210 kts | 180° |
| 2026-05-04 12:11 | 49.93321 | 8.53037 | 4065 ft | 228 kts | 180° |
| 2026-05-04 12:11 | 49.91669 | 8.53154 | 4602 ft | 248 kts | 180° |
| 2026-05-04 12:11 | 49.89885 | 8.53283 | 5199 ft | 262 kts | 180° |
| 2026-05-04 12:12 | 49.88047 | 8.53417 | 5990 ft | 268 kts | 180° |
| 2026-05-04 12:12 | 49.86169 | 8.53554 | 6801 ft | 272 kts | 180° |
| 2026-05-04 12:12 | 49.84277 | 8.53693 | 7653 ft | 272 kts | 179° |
| 2026-05-04 12:12 | 49.82382 | 8.53832 | 8529 ft | 273 kts | 179° |
| 2026-05-04 12:13 | 49.80486 | 8.53970 | 9419 ft | 273 kts | 178° |
| 2026-05-04 12:14 | 49.65222 | 8.52437 | 13270 ft | 345 kts | 185° |
| 2026-05-04 12:15 | 49.62817 | 8.52118 | 13988 ft | 349 kts | 185° |
| 2026-05-04 12:15 | 49.61210 | 8.51905 | 14430 ft | 350 kts | 185° |
| 2026-05-04 12:15 | 49.58777 | 8.51584 | 15101 ft | 353 kts | 185° |
| 2026-05-04 12:15 | 49.56320 | 8.51259 | 15766 ft | 356 kts | 186° |
| 2026-05-04 12:16 | 49.53845 | 8.50932 | 16427 ft | 358 kts | 186° |
| 2026-05-04 12:16 | 49.51348 | 8.50603 | 17074 ft | 361 kts | 186° |
| 2026-05-04 12:16 | 49.48831 | 8.50274 | 17722 ft | 364 kts | 186° |
| 2026-05-04 12:16 | 49.46301 | 8.49943 | 18344 ft | 367 kts | 186° |
| 2026-05-04 12:17 | 49.43742 | 8.49608 | 18875 ft | 370 kts | 186° |
| 2026-05-04 12:17 | 49.41169 | 8.49274 | 19393 ft | 373 kts | 186° |
| 2026-05-04 12:17 | 49.38571 | 8.48935 | 19938 ft | 376 kts | 186° |
| 2026-05-04 12:17 | 49.35956 | 8.48594 | 20472 ft | 378 kts | 186° |
| 2026-05-04 12:18 | 49.33330 | 8.48251 | 21001 ft | 380 kts | 186° |
| 2026-05-04 12:18 | 49.30686 | 8.47906 | 21519 ft | 383 kts | 186° |
| 2026-05-04 12:18 | 49.28022 | 8.47560 | 22028 ft | 385 kts | 186° |
| 2026-05-04 12:18 | 49.25340 | 8.47213 | 22541 ft | 388 kts | 186° |
| 2026-05-04 12:19 | 49.22643 | 8.46861 | 23052 ft | 390 kts | 186° |
| 2026-05-04 12:19 | 49.19932 | 8.46507 | 23541 ft | 392 kts | 186° |
| 2026-05-04 12:19 | 49.17203 | 8.46152 | 23960 ft | 394 kts | 186° |
| 2026-05-04 12:19 | 49.14462 | 8.45796 | 24358 ft | 397 kts | 186° |
| 2026-05-04 12:20 | 49.11703 | 8.45438 | 24755 ft | 399 kts | 186° |
| 2026-05-04 12:20 | 49.08969 | 8.45084 | 25140 ft | 401 kts | 187° |
| 2026-05-04 12:20 | 49.06189 | 8.44635 | 25523 ft | 402 kts | 191° |
| 2026-05-04 12:20 | 49.03446 | 8.43774 | 25901 ft | 404 kts | 194° |
| 2026-05-04 12:21 | 49.00701 | 8.42808 | 26279 ft | 406 kts | 194° |
| 2026-05-04 12:21 | 48.97947 | 8.41831 | 26664 ft | 408 kts | 195° |
| 2026-05-04 12:21 | 48.95175 | 8.40857 | 27037 ft | 410 kts | 195° |
| 2026-05-04 12:21 | 48.92393 | 8.39886 | 27401 ft | 412 kts | 195° |
| 2026-05-04 12:22 | 48.89593 | 8.38914 | 27761 ft | 414 kts | 195° |
| 2026-05-04 12:22 | 48.86781 | 8.37938 | 28110 ft | 416 kts | 195° |
| 2026-05-04 12:22 | 48.83954 | 8.36959 | 28467 ft | 418 kts | 195° |
| 2026-05-04 12:22 | 48.81104 | 8.35972 | 28833 ft | 420 kts | 195° |
| 2026-05-04 12:23 | 48.78263 | 8.34989 | 29300 ft | 419 kts | 195° |
| 2026-05-04 12:23 | 48.75431 | 8.33969 | 29786 ft | 417 kts | 196° |
| 2026-05-04 12:23 | 48.72619 | 8.32931 | 30244 ft | 415 kts | 196° |
| 2026-05-04 12:23 | 48.69820 | 8.31898 | 30588 ft | 414 kts | 196° |
| 2026-05-04 12:24 | 48.67022 | 8.30872 | 30902 ft | 413 kts | 196° |
| 2026-05-04 12:24 | 48.64236 | 8.29856 | 31240 ft | 412 kts | 196° |
| 2026-05-04 12:24 | 48.61452 | 8.28843 | 31583 ft | 411 kts | 196° |
| 2026-05-04 12:24 | 48.58671 | 8.27831 | 31914 ft | 410 kts | 196° |
| 2026-05-04 12:25 | 48.55938 | 8.26838 | 32186 ft | 409 kts | 196° |
| 2026-05-04 12:25 | 48.53174 | 8.25835 | 32497 ft | 408 kts | 196° |
| 2026-05-04 12:25 | 48.50413 | 8.24835 | 32791 ft | 407 kts | 196° |
| 2026-05-04 12:25 | 48.47660 | 8.23838 | 33004 ft | 409 kts | 196° |
| 2026-05-04 12:26 | 48.42122 | 8.21813 | 33016 ft | 409 kts | 197° |
| 2026-05-04 12:26 | 48.36590 | 8.19792 | 32994 ft | 409 kts | 196° |
| 2026-05-04 12:27 | 48.31043 | 8.17772 | 32998 ft | 410 kts | 196° |
| 2026-05-04 12:27 | 48.25499 | 8.15713 | 32997 ft | 409 kts | 199° |
| 2026-05-04 12:28 | 48.20312 | 8.12326 | 32998 ft | 407 kts | 208° |
| 2026-05-04 12:28 | 48.15252 | 8.08525 | 32991 ft | 407 kts | 208° |
| 2026-05-04 12:29 | 48.10179 | 8.04766 | 33000 ft | 407 kts | 208° |
| 2026-05-04 12:29 | 48.05107 | 8.01029 | 33004 ft | 407 kts | 207° |
| 2026-05-04 12:30 | 48.00027 | 7.97298 | 33007 ft | 407 kts | 207° |
| 2026-05-04 12:30 | 47.94942 | 7.93566 | 32994 ft | 407 kts | 207° |
| 2026-05-04 12:31 | 47.89860 | 7.89847 | 32998 ft | 407 kts | 207° |
| 2026-05-04 12:31 | 47.84762 | 7.86125 | 32999 ft | 408 kts | 207° |
| 2026-05-04 12:32 | 47.77116 | 7.80560 | 32992 ft | 408 kts | 207° |
| 2026-05-04 12:33 | 47.72010 | 7.76852 | 32989 ft | 409 kts | 207° |
| 2026-05-04 12:33 | 47.66894 | 7.73145 | 32999 ft | 409 kts | 207° |
| 2026-05-04 12:34 | 47.61775 | 7.69445 | 32992 ft | 409 kts | 207° |
| 2026-05-04 12:34 | 47.56655 | 7.65750 | 32990 ft | 409 kts | 207° |
| 2026-05-04 12:35 | 47.51538 | 7.62068 | 32998 ft | 409 kts | 207° |
| 2026-05-04 12:35 | 47.46421 | 7.58393 | 32993 ft | 408 kts | 207° |
| 2026-05-04 12:36 | 47.41313 | 7.54733 | 32991 ft | 408 kts | 207° |
| 2026-05-04 12:36 | 47.36202 | 7.51077 | 32990 ft | 408 kts | 207° |
| 2026-05-04 12:37 | 47.31096 | 7.47434 | 33009 ft | 408 kts | 207° |
| 2026-05-04 12:37 | 47.26020 | 7.43819 | 32993 ft | 403 kts | 207° |
| 2026-05-04 12:38 | 47.20955 | 7.40221 | 33004 ft | 405 kts | 207° |
| 2026-05-04 12:38 | 47.16150 | 7.35973 | 33000 ft | 404 kts | 221° |
| 2026-05-04 12:39 | 47.12457 | 7.29760 | 33000 ft | 405 kts | 231° |
| 2026-05-04 12:39 | 47.08988 | 7.23250 | 32993 ft | 405 kts | 230° |
| 2026-05-04 12:40 | 47.05486 | 7.16783 | 33011 ft | 405 kts | 230° |
| 2026-05-04 12:40 | 47.01973 | 7.10341 | 33025 ft | 404 kts | 230° |
| 2026-05-04 12:41 | 46.98457 | 7.03912 | 33040 ft | 404 kts | 230° |
| 2026-05-04 12:41 | 46.94935 | 6.97482 | 33046 ft | 405 kts | 230° |
| 2026-05-04 12:42 | 46.91267 | 6.91256 | 33056 ft | 403 kts | 221° |
| 2026-05-04 12:42 | 46.86613 | 6.86742 | 33057 ft | 402 kts | 209° |
| 2026-05-04 12:43 | 46.81726 | 6.82751 | 33053 ft | 403 kts | 209° |
| 2026-05-04 12:43 | 46.76856 | 6.78730 | 33046 ft | 403 kts | 210° |
| 2026-05-04 12:44 | 46.71973 | 6.74687 | 33046 ft | 404 kts | 210° |
| 2026-05-04 12:44 | 46.67081 | 6.70643 | 33038 ft | 404 kts | 210° |
| 2026-05-04 12:45 | 46.62191 | 6.66607 | 33032 ft | 404 kts | 210° |
| 2026-05-04 12:45 | 46.57297 | 6.62578 | 33035 ft | 404 kts | 210° |
| 2026-05-04 12:46 | 46.52399 | 6.58552 | 33035 ft | 404 kts | 210° |
| 2026-05-04 12:46 | 46.47535 | 6.54562 | 33034 ft | 404 kts | 210° |
| 2026-05-04 12:47 | 46.42638 | 6.50555 | 33035 ft | 404 kts | 210° |
| 2026-05-04 12:47 | 46.37703 | 6.46527 | 33046 ft | 404 kts | 210° |
| 2026-05-04 12:48 | 46.32830 | 6.42556 | 33057 ft | 405 kts | 210° |
| 2026-05-04 12:48 | 46.27909 | 6.38551 | 33082 ft | 401 kts | 209° |
| 2026-05-04 12:49 | 46.23066 | 6.34621 | 33076 ft | 402 kts | 209° |
| 2026-05-04 12:49 | 46.18188 | 6.30671 | 33074 ft | 402 kts | 209° |
| 2026-05-04 12:50 | 46.13305 | 6.26723 | 33073 ft | 402 kts | 209° |
| 2026-05-04 12:50 | 46.08424 | 6.22788 | 33074 ft | 402 kts | 209° |
| 2026-05-04 12:51 | 46.03543 | 6.18860 | 33080 ft | 402 kts | 209° |
| 2026-05-04 12:51 | 45.98657 | 6.14935 | 33070 ft | 402 kts | 209° |
| 2026-05-04 12:52 | 45.93766 | 6.11019 | 33080 ft | 402 kts | 209° |
| 2026-05-04 12:52 | 45.88875 | 6.07105 | 33083 ft | 402 kts | 209° |
| 2026-05-04 12:53 | 45.83737 | 6.03970 | 33084 ft | 404 kts | 195° |
| 2026-05-04 12:53 | 45.78166 | 6.02660 | 33073 ft | 407 kts | 190° |
| 2026-05-04 12:54 | 45.72565 | 6.01504 | 33067 ft | 407 kts | 191° |
| 2026-05-04 12:54 | 45.66972 | 6.00287 | 33077 ft | 406 kts | 191° |
| 2026-05-04 12:55 | 45.61388 | 5.99061 | 33079 ft | 407 kts | 191° |
| 2026-05-04 12:55 | 45.55779 | 5.97830 | 33078 ft | 408 kts | 191° |
| 2026-05-04 12:56 | 45.50163 | 5.96601 | 33074 ft | 408 kts | 191° |
| 2026-05-04 12:56 | 45.44598 | 5.95100 | 33062 ft | 407 kts | 194° |
| 2026-05-04 12:57 | 45.39066 | 5.93361 | 33054 ft | 408 kts | 195° |
| 2026-05-04 12:57 | 45.33523 | 5.91625 | 33053 ft | 407 kts | 195° |
| 2026-05-04 12:58 | 45.27990 | 5.89902 | 33044 ft | 408 kts | 194° |
| 2026-05-04 12:58 | 45.22445 | 5.88179 | 33038 ft | 408 kts | 195° |
| 2026-05-04 12:59 | 45.16897 | 5.86460 | 33041 ft | 408 kts | 195° |
| 2026-05-04 12:59 | 45.11358 | 5.84748 | 33047 ft | 407 kts | 195° |
| 2026-05-04 13:00 | 45.06749 | 5.83320 | 33044 ft | 408 kts | 195° |
| 2026-05-04 13:00 | 45.01218 | 5.81611 | 33019 ft | 406 kts | 195° |
| 2026-05-04 13:01 | 44.95687 | 5.79906 | 33028 ft | 407 kts | 195° |
| 2026-05-04 13:01 | 44.90154 | 5.78206 | 33030 ft | 407 kts | 195° |
| 2026-05-04 13:02 | 44.84622 | 5.76514 | 33016 ft | 407 kts | 196° |
| 2026-05-04 13:02 | 44.79111 | 5.74826 | 33027 ft | 405 kts | 196° |
| 2026-05-04 13:03 | 44.73602 | 5.73142 | 33028 ft | 405 kts | 196° |
| 2026-05-04 13:03 | 44.68093 | 5.71461 | 33047 ft | 405 kts | 196° |
| 2026-05-04 13:04 | 44.62574 | 5.69779 | 33050 ft | 406 kts | 196° |
| 2026-05-04 13:04 | 44.57037 | 5.68097 | 33043 ft | 407 kts | 196° |
| 2026-05-04 13:05 | 44.51505 | 5.66420 | 33046 ft | 407 kts | 196° |
| 2026-05-04 13:05 | 44.45971 | 5.64749 | 33037 ft | 405 kts | 196° |
| 2026-05-04 13:06 | 44.40461 | 5.63085 | 33037 ft | 405 kts | 196° |
| 2026-05-04 13:06 | 44.35109 | 5.60809 | 33040 ft | 400 kts | 204° |
| 2026-05-04 13:07 | 44.29922 | 5.57938 | 33042 ft | 401 kts | 205° |
| 2026-05-04 13:07 | 44.24751 | 5.55093 | 33033 ft | 397 kts | 205° |
| 2026-05-04 13:08 | 44.19611 | 5.52283 | 33038 ft | 397 kts | 205° |
| 2026-05-04 13:08 | 44.14505 | 5.49500 | 33055 ft | 397 kts | 205° |
| 2026-05-04 13:09 | 44.09358 | 5.46700 | 33018 ft | 397 kts | 205° |
| 2026-05-04 13:09 | 44.04235 | 5.43916 | 33020 ft | 395 kts | 205° |
| 2026-05-04 13:10 | 43.99115 | 5.41141 | 33035 ft | 394 kts | 205° |
| 2026-05-04 13:10 | 43.94006 | 5.38372 | 33020 ft | 394 kts | 205° |
| 2026-05-04 13:11 | 43.88895 | 5.35608 | 33019 ft | 394 kts | 205° |
| 2026-05-04 13:11 | 43.83799 | 5.32857 | 33041 ft | 393 kts | 205° |
| 2026-05-04 13:12 | 43.78709 | 5.30113 | 33021 ft | 392 kts | 205° |
| 2026-05-04 13:12 | 43.73626 | 5.27377 | 33021 ft | 392 kts | 205° |
| 2026-05-04 13:13 | 43.68533 | 5.24643 | 33018 ft | 392 kts | 205° |
| 2026-05-04 13:13 | 43.63445 | 5.21917 | 33025 ft | 393 kts | 205° |
| 2026-05-04 13:14 | 43.58350 | 5.19191 | 33020 ft | 393 kts | 205° |
| 2026-05-04 13:14 | 43.53255 | 5.16470 | 33022 ft | 392 kts | 205° |
| 2026-05-04 13:15 | 43.48164 | 5.13757 | 33022 ft | 393 kts | 205° |
| 2026-05-04 13:15 | 43.43070 | 5.11047 | 33025 ft | 392 kts | 205° |
| 2026-05-04 13:16 | 43.38065 | 5.08101 | 33019 ft | 389 kts | 213° |
| 2026-05-04 13:16 | 43.33584 | 5.03981 | 33016 ft | 387 kts | 217° |
| 2026-05-04 13:17 | 43.29169 | 4.99781 | 33004 ft | 385 kts | 217° |
| 2026-05-04 13:17 | 43.24757 | 4.95620 | 33005 ft | 385 kts | 217° |
| 2026-05-04 13:18 | 43.20354 | 4.91486 | 32996 ft | 387 kts | 217° |
| 2026-05-04 13:18 | 43.15905 | 4.87317 | 32984 ft | 387 kts | 217° |
| 2026-05-04 13:19 | 43.11462 | 4.83160 | 32968 ft | 386 kts | 217° |
| 2026-05-04 13:19 | 43.07040 | 4.79028 | 32978 ft | 385 kts | 217° |
| 2026-05-04 13:20 | 43.02436 | 4.75258 | 32978 ft | 387 kts | 212° |
| 2026-05-04 13:20 | 42.97727 | 4.71701 | 32967 ft | 387 kts | 212° |
| 2026-05-04 13:21 | 42.93019 | 4.68140 | 32969 ft | 387 kts | 212° |
| 2026-05-04 13:21 | 42.88332 | 4.64597 | 32963 ft | 385 kts | 212° |
| 2026-05-04 13:22 | 42.83646 | 4.61059 | 32968 ft | 385 kts | 212° |
| 2026-05-04 13:22 | 42.78959 | 4.57526 | 32966 ft | 385 kts | 212° |
| 2026-05-04 13:23 | 42.74271 | 4.53999 | 32965 ft | 385 kts | 212° |
| 2026-05-04 13:23 | 42.69579 | 4.50475 | 32960 ft | 385 kts | 212° |
| 2026-05-04 13:24 | 42.64883 | 4.46953 | 32958 ft | 385 kts | 212° |
| 2026-05-04 13:24 | 42.60184 | 4.43438 | 32961 ft | 386 kts | 212° |
| 2026-05-04 13:25 | 42.53134 | 4.38171 | 32946 ft | 385 kts | 212° |
| 2026-05-04 13:25 | 42.48469 | 4.34696 | 32944 ft | 382 kts | 212° |
| 2026-05-04 13:26 | 42.43847 | 4.31254 | 32950 ft | 381 kts | 212° |
| 2026-05-04 13:26 | 42.39199 | 4.27803 | 32953 ft | 381 kts | 212° |
| 2026-05-04 13:27 | 42.34553 | 4.24358 | 32941 ft | 381 kts | 212° |
| 2026-05-04 13:27 | 42.29898 | 4.20913 | 32933 ft | 381 kts | 212° |
| 2026-05-04 13:28 | 42.25249 | 4.17479 | 32952 ft | 380 kts | 212° |
| 2026-05-04 13:28 | 42.20609 | 4.14057 | 32945 ft | 380 kts | 212° |
| 2026-05-04 13:29 | 42.15972 | 4.10643 | 32934 ft | 380 kts | 212° |
| 2026-05-04 13:29 | 42.11328 | 4.07231 | 32923 ft | 380 kts | 212° |
| 2026-05-04 13:30 | 42.06704 | 4.03838 | 32934 ft | 377 kts | 212° |
| 2026-05-04 13:30 | 42.02092 | 4.00462 | 32937 ft | 377 kts | 212° |
| 2026-05-04 13:31 | 41.97482 | 3.97094 | 32935 ft | 377 kts | 212° |
| 2026-05-04 13:31 | 41.92846 | 3.93785 | 32928 ft | 379 kts | 208° |
| 2026-05-04 13:32 | 41.87792 | 3.91607 | 32929 ft | 383 kts | 200° |
| 2026-05-04 13:32 | 41.82650 | 3.89732 | 32932 ft | 383 kts | 200° |
| 2026-05-04 13:33 | 41.77520 | 3.87835 | 32931 ft | 383 kts | 200° |
| 2026-05-04 13:33 | 41.72386 | 3.85932 | 32932 ft | 383 kts | 200° |
| 2026-05-04 13:34 | 41.67255 | 3.84028 | 32933 ft | 382 kts | 200° |
| 2026-05-04 13:34 | 41.62122 | 3.82129 | 32935 ft | 383 kts | 200° |
| 2026-05-04 13:35 | 41.54448 | 3.79297 | 32937 ft | 379 kts | 200° |
| 2026-05-04 13:36 | 41.49363 | 3.77422 | 32917 ft | 379 kts | 200° |
| 2026-05-04 13:36 | 41.44273 | 3.75549 | 32931 ft | 380 kts | 200° |
| 2026-05-04 13:37 | 41.39179 | 3.73677 | 32936 ft | 380 kts | 200° |
| 2026-05-04 13:37 | 41.34121 | 3.71823 | 32936 ft | 380 kts | 200° |
| 2026-05-04 13:38 | 41.29063 | 3.69973 | 31930 ft | 378 kts | 200° |
| 2026-05-04 13:38 | 41.26514 | 3.69037 | 31023 ft | 381 kts | 200° |
| 2026-05-04 13:38 | 41.23963 | 3.68105 | 30330 ft | 380 kts | 199° |
| 2026-05-04 13:38 | 41.21422 | 3.67177 | 29623 ft | 377 kts | 199° |
| 2026-05-04 13:39 | 41.18897 | 3.66258 | 28908 ft | 375 kts | 199° |
| 2026-05-04 13:39 | 41.16392 | 3.65345 | 28211 ft | 372 kts | 200° |
| 2026-05-04 13:39 | 41.13901 | 3.64439 | 27523 ft | 369 kts | 200° |
| 2026-05-04 13:39 | 41.11435 | 3.63540 | 26862 ft | 367 kts | 200° |
| 2026-05-04 13:40 | 41.08981 | 3.62647 | 26216 ft | 365 kts | 200° |
| 2026-05-04 13:40 | 41.06538 | 3.61760 | 25557 ft | 363 kts | 200° |
| 2026-05-04 13:40 | 41.04113 | 3.60879 | 24958 ft | 360 kts | 200° |
| 2026-05-04 13:40 | 41.01704 | 3.60005 | 24357 ft | 358 kts | 200° |
| 2026-05-04 13:41 | 40.99310 | 3.59137 | 23747 ft | 356 kts | 200° |
| 2026-05-04 13:41 | 40.96927 | 3.58274 | 23049 ft | 354 kts | 200° |
| 2026-05-04 13:41 | 40.94561 | 3.57417 | 22335 ft | 352 kts | 200° |
| 2026-05-04 13:42 | 40.89873 | 3.55722 | 21024 ft | 347 kts | 199° |
| 2026-05-04 13:42 | 40.87546 | 3.54883 | 20445 ft | 345 kts | 199° |
| 2026-05-04 13:42 | 40.85242 | 3.54051 | 19873 ft | 343 kts | 199° |
| 2026-05-04 13:42 | 40.82945 | 3.53222 | 19316 ft | 341 kts | 199° |
| 2026-05-04 13:43 | 40.80668 | 3.52401 | 18775 ft | 339 kts | 199° |
| 2026-05-04 13:43 | 40.78398 | 3.51582 | 18226 ft | 337 kts | 199° |
| 2026-05-04 13:43 | 40.76142 | 3.50771 | 17622 ft | 335 kts | 198° |
| 2026-05-04 13:43 | 40.73900 | 3.49964 | 17052 ft | 332 kts | 198° |
| 2026-05-04 13:44 | 40.71678 | 3.49165 | 16505 ft | 330 kts | 198° |
| 2026-05-04 13:44 | 40.69476 | 3.48374 | 15971 ft | 327 kts | 198° |
| 2026-05-04 13:44 | 40.67289 | 3.47590 | 15451 ft | 324 kts | 198° |
| 2026-05-04 13:44 | 40.65118 | 3.46811 | 14937 ft | 322 kts | 197° |
| 2026-05-04 13:45 | 40.62967 | 3.46040 | 14428 ft | 319 kts | 197° |
| 2026-05-04 13:45 | 40.60834 | 3.45276 | 13936 ft | 317 kts | 197° |
| 2026-05-04 13:45 | 40.58714 | 3.44517 | 13404 ft | 314 kts | 197° |
| 2026-05-04 13:45 | 40.56611 | 3.43764 | 12860 ft | 312 kts | 197° |
| 2026-05-04 13:46 | 40.54524 | 3.43017 | 12328 ft | 310 kts | 197° |
| 2026-05-04 13:46 | 40.53149 | 3.42526 | 11968 ft | 309 kts | 197° |
| 2026-05-04 13:46 | 40.51083 | 3.41788 | 11445 ft | 307 kts | 196° |
| 2026-05-04 13:46 | 40.49023 | 3.41052 | 11202 ft | 306 kts | 196° |
| 2026-05-04 13:47 | 40.46969 | 3.40320 | 11136 ft | 306 kts | 196° |
| 2026-05-04 13:47 | 40.44916 | 3.39588 | 11117 ft | 306 kts | 196° |
| 2026-05-04 13:47 | 40.42876 | 3.38798 | 11112 ft | 306 kts | 198° |
| 2026-05-04 13:47 | 40.40851 | 3.37949 | 11106 ft | 305 kts | 199° |
| 2026-05-04 13:48 | 40.38831 | 3.37093 | 11106 ft | 305 kts | 199° |
| 2026-05-04 13:48 | 40.36811 | 3.36240 | 11106 ft | 305 kts | 199° |
| 2026-05-04 13:48 | 40.34789 | 3.35388 | 11106 ft | 305 kts | 199° |
| 2026-05-04 13:48 | 40.32767 | 3.34536 | 11106 ft | 305 kts | 199° |
| 2026-05-04 13:49 | 40.30743 | 3.33685 | 11105 ft | 305 kts | 199° |
| 2026-05-04 13:49 | 40.28722 | 3.32835 | 11104 ft | 305 kts | 199° |
| 2026-05-04 13:49 | 40.26698 | 3.31985 | 11105 ft | 305 kts | 199° |
| 2026-05-04 13:49 | 40.24678 | 3.31138 | 11105 ft | 305 kts | 199° |
| 2026-05-04 13:50 | 40.22652 | 3.30288 | 11107 ft | 305 kts | 199° |
| 2026-05-04 13:50 | 40.20632 | 3.29441 | 11097 ft | 305 kts | 199° |
| 2026-05-04 13:50 | 40.18605 | 3.28592 | 11097 ft | 306 kts | 199° |
| 2026-05-04 13:50 | 40.16580 | 3.27744 | 11097 ft | 305 kts | 199° |
| 2026-05-04 13:51 | 40.14570 | 3.26904 | 10967 ft | 301 kts | 199° |
| 2026-05-04 13:51 | 40.12562 | 3.26065 | 10622 ft | 303 kts | 199° |
| 2026-05-04 13:51 | 40.10560 | 3.25229 | 10313 ft | 301 kts | 199° |
| 2026-05-04 13:51 | 40.08568 | 3.24397 | 10006 ft | 297 kts | 199° |
| 2026-05-04 13:52 | 40.04738 | 3.22802 | 9344 ft | 281 kts | 199° |
| 2026-05-04 13:52 | 40.02894 | 3.22033 | 9009 ft | 275 kts | 199° |
| 2026-05-04 13:52 | 40.01090 | 3.21282 | 8664 ft | 269 kts | 199° |
| 2026-05-04 13:53 | 39.99319 | 3.20545 | 8345 ft | 266 kts | 199° |
| 2026-05-04 13:53 | 39.97561 | 3.19814 | 8054 ft | 264 kts | 200° |
| 2026-05-04 13:53 | 39.95811 | 3.19085 | 7777 ft | 263 kts | 200° |
| 2026-05-04 13:54 | 39.92422 | 3.17679 | 7273 ft | 249 kts | 200° |
| 2026-05-04 13:54 | 39.90793 | 3.17003 | 7003 ft | 242 kts | 200° |
| 2026-05-04 13:54 | 39.87660 | 3.15702 | 6482 ft | 231 kts | 200° |
| 2026-05-04 13:55 | 39.86145 | 3.15076 | 6209 ft | 225 kts | 200° |
| 2026-05-04 13:55 | 39.83182 | 3.13860 | 5627 ft | 222 kts | 200° |
| 2026-05-04 13:55 | 39.81709 | 3.13252 | 5388 ft | 222 kts | 200° |
| 2026-05-04 13:56 | 39.80236 | 3.12644 | 5168 ft | 222 kts | 200° |
| 2026-05-04 13:56 | 39.78764 | 3.12036 | 4946 ft | 222 kts | 200° |
| 2026-05-04 13:56 | 39.75827 | 3.10820 | 4495 ft | 219 kts | 200° |
| 2026-05-04 13:57 | 39.74388 | 3.10223 | 4270 ft | 217 kts | 200° |
| 2026-05-04 13:57 | 39.72956 | 3.09630 | 3988 ft | 216 kts | 200° |
| 2026-05-04 13:58 | 39.69546 | 3.06208 | 3138 ft | 213 kts | 245° |
| 2026-05-04 13:58 | 39.68124 | 3.02903 | 2646 ft | 209 kts | 238° |
| 2026-05-04 13:58 | 39.67363 | 3.01282 | 2461 ft | 207 kts | 239° |
| 2026-05-04 13:59 | 39.66642 | 2.99743 | 2414 ft | 191 kts | 238° |
| 2026-05-04 13:59 | 39.65983 | 2.98341 | 2417 ft | 174 kts | 238° |
| 2026-05-04 13:59 | 39.64768 | 2.95758 | 2461 ft | 150 kts | 239° |
| 2026-05-04 14:00 | 39.64273 | 2.94704 | 2467 ft | 124 kts | 237° |
| 2026-05-04 14:00 | 39.63409 | 2.92866 | 2438 ft | 117 kts | 237° |
| 2026-05-04 14:00 | 39.62970 | 2.91934 | 2451 ft | 122 kts | 239° |
| 2026-05-04 14:01 | 39.62527 | 2.90993 | 2458 ft | 126 kts | 238° |
| 2026-05-04 14:01 | 39.62065 | 2.90010 | 2433 ft | 129 kts | 239° |
| 2026-05-04 14:01 | 39.61147 | 2.88049 | 2141 ft | 122 kts | 239° |
| 2026-05-04 14:02 | 39.60710 | 2.87116 | 1956 ft | 121 kts | 236° |
| 2026-05-04 14:02 | 39.60262 | 2.86198 | 1813 ft | 120 kts | 238° |
| 2026-05-04 14:02 | 39.59832 | 2.85264 | 1685 ft | 121 kts | 238° |
| 2026-05-04 14:02 | 39.59379 | 2.84330 | 1520 ft | 122 kts | 237° |
| 2026-05-04 14:03 | 39.58955 | 2.83382 | 1344 ft | 121 kts | 238° |
| 2026-05-04 14:03 | 39.58507 | 2.82464 | 1172 ft | 123 kts | 236° |
| 2026-05-04 14:03 | 39.58049 | 2.81511 | 1033 ft | 126 kts | 237° |
| 2026-05-04 14:03 | 39.57612 | 2.80548 | 904 ft | 128 kts | 237° |
| 2026-05-04 14:04 | 39.56642 | 2.78507 | 532 ft | 133 kts | 236° |
| 2026-05-04 14:04 | 39.56177 | 2.77500 | 331 ft | 130 kts | 237° |
| 2026-05-04 14:04 | 39.55703 | 2.76502 | 175 ft | 129 kts | 237° |
| 2026-05-04 14:05 | 39.54965 | 2.74940 | 44 ft | 42 kts | 234° |
| 2026-05-04 14:05 | 39.54833 | 2.74601 | 42 ft | 43 kts | 256° |
| 2026-05-04 14:05 | 39.54807 | 2.74333 | 44 ft | 14 kts | 268° |
| 2026-05-04 14:06 | 39.54804 | 2.74256 | 44 ft | 7 kts | 268° |
| 2026-05-04 14:06 | 39.54803 | 2.74200 | 44 ft | 3 kts | 266° |
| 2026-05-04 14:06 | 39.54805 | 2.74160 | 44 ft | 6 kts | 289° |
| 2026-05-04 14:06 | 39.54837 | 2.74117 | 35 ft | 8 kts | 329° |
| 2026-05-04 14:07 | 39.54876 | 2.74089 | 44 ft | 7 kts | 330° |
| 2026-05-04 14:07 | 39.54926 | 2.74050 | 41 ft | 10 kts | 329° |
| 2026-05-04 14:07 | 39.54988 | 2.73999 | 44 ft | 12 kts | 328° |
| 2026-05-04 14:07 | 39.55063 | 2.73939 | 44 ft | 14 kts | 329° |
| 2026-05-04 14:08 | 39.55149 | 2.73873 | 44 ft | 15 kts | 330° |
| 2026-05-04 14:08 | 39.55167 | 2.73792 | 42 ft | 11 kts | 246° |
| 2026-05-04 14:08 | 39.55172 | 2.73685 | 44 ft | 13 kts | 248° |
| 2026-05-04 14:08 | 39.55125 | 2.73578 | 44 ft | 11 kts | 239° |
| 2026-05-04 14:09 | 39.55062 | 2.73446 | 44 ft | 5 kts | 238° |
| 2026-05-04 14:09 | 39.55042 | 2.73419 | 42 ft | 4 kts | 198° |
| 2026-05-04 14:10 | 39.55011 | 2.73436 | 44 ft | 3 kts | 162° |
| 2026-05-04 14:10 | 39.55006 | 2.73438 | 44 ft | 1 kts | 163° |
| 2026-05-04 14:10 | 39.55002 | 2.73440 | 44 ft | 0 kts | 163° |